Aeroporto :
LOGIN :

Iscrizione | Disclaimer

   EN    FR    IT 

 










Sommario :    VFR   VFR Marginale   IFR   IFR Intensivo   IFR Molto Intensivo
Visibilità : 
Base nubi : 
>= 8 km
>= 3000ft
5 / 8 km
1000 / 3000 ft
1500m / 5 km
500 / 1000 ft
800 / 1500m
200 / 500 ft
< 800m
< 200 ft
Simboli :   Temporali  Nebbia  Neve Forte  Precipitazioni Forti  Vento > 20 kt
SIGMETs :   Varie  Temporali  Ghiacco  Turbolenza  Onda orograficha  Ceneri Vulcaniche






- Altitudine del aeroporto : 49 ft
- Codice IATA : SEN


EGMC - Southend

ULTIMO METAR :
  • 040820Z 35010KT 320V020 9999 FEW021 SCT023 13/08 Q1002

METARs OBSOLETI :
  • 040750Z 36012KT 9999 FEW017 SCT022 13/08 Q1003
  • 040720Z 33011KT 9999 SCT012 BKN020 12/09 Q1003
  • 040650Z 33011KT 9999 BKN012 11/09 Q1003
  • 040620Z 33011KT 9999 BKN013 BKN045 11/08 Q1003
  • 040550Z 33010KT 9999 SCT012 BKN045 11/09 Q1003

TAF TAF EGMC
Valido dal 04 a 09 ore il 04 a 18 ore UTC


040756Z 0409/0418 33009KT 9999 SCT040
PROB30
TEMPO 0409/0410 8000 -RA BKN012
PROB30
TEMPO 0415/0418 7000 SHRA



MetMap, La meteo Aeronautica in un colpo d'occhio ! - Copyright ORBIFLY Dicembre 2007 - Disclaimer

ORBIFLY MET'MAP TEAM :

Programmazione e sviluppo : Alexandra Zaïnal
Concezione : Baudouin d'Aumeries
Aiuto per la programmazione : Marc-Olivier Méhu
Supporto tecnico e logistico : Manuel Goepfert
Aiuto per la traduzione : Arnaldo La Scala

Contatto : metmap@orbifly.com




FONTI E CREDITI :

   NOAA